Time;durP1;ratioP1;P1;durP2;ratioP2;P2;SDS_P1;SDS_P2;PMS_P1;PMS_P2;Temp;Humidity;BMP_temperature;BMP_pressure;BME280_temperature;BME280_humidity;BME280_pressure;Samples;Min_cycle;Max_cycle;Signal;HPM_P1;HPM_P2
2021/04/16 00:00:20;;;;;;;10.30;9.40;;;-0.10;99.90;;;;;;4935151;28;20197;-80
2021/04/16 00:02:49;;;;;;;13.68;10.48;;;-0.10;99.90;;;;;;4935069;29;20657;-81
2021/04/16 00:05:16;;;;;;;10.45;9.55;;;0.00;99.90;;;;;;4935043;29;20216;-80
2021/04/16 00:07:45;;;;;;;13.65;12.30;;;0.00;99.90;;;;;;4933780;29;20779;-80
2021/04/16 00:10:15;;;;;;;13.45;12.15;;;0.00;99.90;;;;;;4934995;28;20751;-80
2021/04/16 00:12:42;;;;;;;12.05;11.05;;;0.10;99.90;;;;;;4934948;28;20209;-81
2021/04/16 00:15:11;;;;;;;11.60;9.25;;;-0.10;99.90;;;;;;4935076;28;20205;-79
2021/04/16 00:17:38;;;;;;;9.70;8.80;;;-0.20;99.90;;;;;;4935162;29;20209;-80
2021/04/16 00:20:08;;;;;;;12.85;11.57;;;-0.30;99.90;;;;;;4934826;29;20201;-80
2021/04/16 00:22:34;;;;;;;10.45;9.45;;;-0.40;99.90;;;;;;4933533;28;20232;-79
2021/04/16 00:25:01;;;;;;;13.75;12.55;;;-0.30;99.90;;;;;;4935000;28;20201;-79
2021/04/16 00:27:27;;;;;;;14.65;13.43;;;-0.30;99.90;;;;;;4934748;28;20214;-81
2021/04/16 00:29:54;;;;;;;15.50;14.10;;;-0.20;99.90;;;;;;4934887;28;20263;-79
2021/04/16 00:32:20;;;;;;;16.73;15.38;;;-0.10;99.90;;;;;;4934632;29;20669;-80
2021/04/16 00:34:46;;;;;;;16.95;15.80;;;0.00;99.90;;;;;;4934685;28;20212;-79
2021/04/16 00:37:14;;;;;;;18.15;16.95;;;0.00;99.90;;;;;;4934650;28;20232;-79
2021/04/16 00:39:42;;;;;;;16.20;15.13;;;0.00;99.90;;;;;;4933571;28;20669;-79
2021/04/16 00:42:09;;;;;;;15.95;14.68;;;0.00;99.90;;;;;;4934518;29;20217;-79
2021/04/16 00:44:35;;;;;;;20.85;18.83;;;-0.20;99.90;;;;;;4934567;29;20228;-79
2021/04/16 00:47:05;;;;;;;21.08;19.65;;;-0.10;99.90;;;;;;4934463;29;20201;-80
2021/04/16 00:49:41;;;;;;;19.35;18.15;;;-0.20;99.90;;;;;;4934419;28;20245;-79
2021/04/16 00:52:09;;;;;;;21.33;19.98;;;-0.30;99.90;;;;;;4934560;28;20201;-78
2021/04/16 00:54:39;;;;;;;21.80;20.35;;;-0.40;99.90;;;;;;4933257;29;20272;-82
2021/04/16 00:57:07;;;;;;;21.40;20.10;;;-0.50;99.90;;;;;;4934386;28;20193;-79
2021/04/16 00:59:38;;;;;;;22.33;21.02;;;-0.40;99.90;;;;;;4934383;29;20201;-80
2021/04/16 01:02:05;;;;;;;22.55;21.15;;;-0.50;99.90;;;;;;4934042;29;20626;-79
2021/04/16 01:04:34;;;;;;;22.23;20.65;;;-0.40;99.90;;;;;;4934405;29;20653;-79
2021/04/16 01:07:03;;;;;;;32.53;22.15;;;-0.40;99.90;;;;;;4983167;28;20283;-80
2021/04/16 01:09:30;;;;;;;19.23;17.95;;;-0.30;99.90;;;;;;4932897;29;20252;-79
2021/04/16 01:11:58;;;;;;;17.70;16.50;;;-0.10;99.90;;;;;;4934165;28;20288;-80
2021/04/16 01:14:25;;;;;;;15.32;14.10;;;0.00;99.90;;;;;;4934382;28;20205;-80
2021/04/16 01:16:52;;;;;;;8.35;7.60;;;0.20;99.90;;;;;;4934064;28;20204;-79
2021/04/16 01:19:27;;;;;;;12.98;9.00;;;0.50;99.90;;;;;;4934150;29;20205;-80
2021/04/16 01:22:01;;;;;;;7.93;6.50;;;0.60;99.90;;;;;;4933987;29;20222;-80
2021/04/16 01:24:30;;;;;;;8.02;6.55;;;0.60;99.90;;;;;;4933697;29;20193;-79
2021/04/16 01:26:57;;;;;;;8.35;5.80;;;0.50;99.90;;;;;;4934015;29;20232;-80
2021/04/16 01:29:25;;;;;;;7.45;4.40;;;0.60;99.90;;;;;;4933711;28;20225;-81
2021/04/16 01:31:52;;;;;;;7.95;4.70;;;0.80;99.90;;;;;;4933662;28;20597;-79
2021/04/16 01:34:22;;;;;;;8.60;5.95;;;0.80;99.90;;;;;;4934403;29;20196;-80
2021/04/16 01:36:51;;;;;;;7.00;5.15;;;0.70;99.90;;;;;;4934025;29;20200;-80
2021/04/16 01:39:19;;;;;;;8.48;4.95;;;0.70;99.90;;;;;;4932835;29;20235;-79
2021/04/16 01:41:47;;;;;;;8.35;5.72;;;0.70;99.90;;;;;;4933525;29;20268;-79
2021/04/16 01:44:17;;;;;;;12.07;6.30;;;0.70;99.90;;;;;;4934449;29;20210;-80
2021/04/16 01:46:50;;;;;;;7.75;4.85;;;0.70;99.90;;;;;;4933929;28;20205;-79
2021/04/16 01:49:17;;;;;;;6.95;4.00;;;0.70;99.90;;;;;;4933541;28;20719;-80
2021/04/16 01:51:44;;;;;;;5.97;2.15;;;0.70;99.90;;;;;;4933508;29;20201;-80
2021/04/16 01:54:14;;;;;;;6.45;2.25;;;0.50;99.90;;;;;;4932263;29;20197;-80
2021/04/16 01:56:42;;;;;;;7.82;3.55;;;0.50;99.90;;;;;;4933222;28;20205;-82
2021/04/16 01:59:14;;;;;;;6.63;2.63;;;0.50;99.90;;;;;;4933446;29;20205;-81
2021/04/16 02:01:43;;;;;;;7.63;3.17;;;0.50;99.90;;;;;;4933449;29;20197;-80
2021/04/16 02:04:11;;;;;;;6.55;2.88;;;0.40;99.90;;;;;;4933453;28;20595;-80
2021/04/16 02:06:38;;;;;;;9.05;4.05;;;0.40;99.90;;;;;;4933252;29;20212;-81
2021/04/16 02:09:06;;;;;;;6.57;2.63;;;0.50;99.90;;;;;;4932140;28;20872;-79
2021/04/16 02:11:40;;;;;;;6.18;1.95;;;0.50;99.90;;;;;;4933333;28;20596;-80
2021/04/16 02:14:07;;;;;;;12.10;2.80;;;0.50;99.90;;;;;;4933349;29;20205;-81
2021/04/16 02:16:34;;;;;;;5.80;2.03;;;0.50;99.90;;;;;;4933269;29;20207;-79
2021/04/16 02:19:01;;;;;;;7.47;2.15;;;0.50;99.90;;;;;;4934384;28;20289;-81
2021/04/16 02:21:28;;;;;;;7.57;3.35;;;0.60;99.90;;;;;;4933043;28;20201;-80
2021/04/16 02:23:56;;;;;;;10.05;5.90;;;0.60;99.90;;;;;;4932011;29;20738;-81
2021/04/16 02:26:22;;;;;;;6.53;2.72;;;0.60;99.90;;;;;;4933114;29;20276;-80
2021/04/16 02:28:49;;;;;;;12.57;4.40;;;0.60;99.90;;;;;;4933061;29;20252;-78
2021/04/16 02:31:15;;;;;;;6.10;2.10;;;0.50;99.90;;;;;;4933008;29;20303;-80
2021/04/16 02:33:43;;;;;;;5.65;1.85;;;0.50;99.90;;;;;;4932967;28;20547;-79
2021/04/16 02:36:10;;;;;;;5.50;1.63;;;0.70;99.90;;;;;;4932962;28;20197;-80
2021/04/16 02:38:37;;;;;;;5.70;1.52;;;0.90;99.90;;;;;;4931848;28;20232;-80
2021/04/16 02:41:04;;;;;;;8.88;4.25;;;0.90;99.90;;;;;;4932878;28;20338;-79
2021/04/16 02:43:31;;;;;;;13.00;3.47;;;1.00;99.90;;;;;;4932894;28;20231;-81
2021/04/16 02:45:58;;;;;;;7.38;3.00;;;1.10;99.90;;;;;;4932808;28;20240;-79
2021/04/16 02:48:24;;;;;;;7.15;3.30;;;1.10;99.90;;;;;;4932683;29;20228;-80
2021/04/16 02:50:52;;;;;;;8.00;2.83;;;1.10;99.90;;;;;;4932908;29;20196;-81
2021/04/16 02:53:18;;;;;;;5.88;1.70;;;1.10;99.90;;;;;;4931843;28;20205;-80
2021/04/16 02:55:45;;;;;;;7.70;3.08;;;1.10;99.90;;;;;;4932665;28;20208;-80
2021/04/16 03:00:47;;;;;;;6.88;2.95;;;1.20;99.90;;;;;;4947899;22;20712;-80
2021/04/16 03:03:13;;;;;;;10.57;2.47;;;1.30;99.90;;;;;;4932654;29;20201;-80
2021/04/16 03:05:41;;;;;;;11.98;3.22;;;1.20;99.90;;;;;;4932910;29;20637;-79
2021/04/16 03:08:10;;;;;;;12.68;3.25;;;1.20;99.90;;;;;;4933633;28;20231;-80
2021/04/16 03:10:43;;;;;;;9.18;3.50;;;1.20;99.90;;;;;;4935815;29;20197;-79
2021/04/16 03:13:09;;;;;;;6.47;2.38;;;1.20;99.90;;;;;;4936041;28;20303;-80
2021/04/16 03:15:36;;;;;;;11.95;5.90;;;1.30;99.90;;;;;;4935763;28;20287;-80
2021/04/16 03:18:05;;;;;;;7.95;3.53;;;1.30;99.90;;;;;;4935844;29;20199;-79
2021/04/16 03:20:31;;;;;;;8.05;3.80;;;1.20;99.90;;;;;;4935670;28;20200;-79
2021/04/16 03:23:01;;;;;;;8.52;4.45;;;1.30;99.90;;;;;;4934812;29;20201;-79
2021/04/16 03:25:28;;;;;;;8.32;4.30;;;1.30;99.90;;;;;;4935879;28;20664;-80
2021/04/16 03:27:55;;;;;;;9.55;5.07;;;1.40;99.90;;;;;;4935800;28;20225;-81
2021/04/16 03:30:23;;;;;;;11.02;5.30;;;1.50;99.90;;;;;;4935524;28;20245;-80
2021/04/16 03:32:50;;;;;;;14.38;5.82;;;1.60;99.90;;;;;;4935579;29;20288;-79
2021/04/16 03:35:18;;;;;;;7.40;3.65;;;1.70;99.90;;;;;;4935674;29;20197;-81
2021/04/16 03:37:45;;;;;;;8.05;4.07;;;1.70;99.90;;;;;;4934457;29;20228;-80
2021/04/16 03:40:14;;;;;;;9.40;5.22;;;1.70;99.90;;;;;;4935678;28;20340;-79
2021/04/16 03:42:44;;;;;;;9.90;6.43;;;1.80;99.90;;;;;;4935271;28;20204;-79
2021/04/16 03:45:13;;;;;;;9.35;4.97;;;1.90;99.90;;;;;;4935613;28;20201;-82
2021/04/16 03:47:40;;;;;;;9.07;5.43;;;1.90;99.90;;;;;;4935398;28;20270;-79
2021/04/16 03:50:08;;;;;;;9.03;6.23;;;1.90;99.90;;;;;;4935270;29;20200;-81
2021/04/16 03:52:36;;;;;;;9.55;5.30;;;2.00;99.90;;;;;;4934337;29;20465;-80
2021/04/16 03:57:38;;;;;;;8.50;7.25;;;2.00;99.90;;;;;;5552591;22;20494;-80
2021/04/16 04:00:13;;;;;;;13.57;5.88;;;2.10;99.90;;;;;;4935260;29;20205;-79
2021/04/16 04:02:40;;;;;;;11.53;6.03;;;2.00;99.90;;;;;;4935303;28;20200;-80
2021/04/16 04:05:10;;;;;;;9.63;6.90;;;2.00;99.90;;;;;;4935286;28;20971;-80
2021/04/16 04:07:36;;;;;;;8.67;5.00;;;2.10;99.90;;;;;;4933922;29;20465;-79
2021/04/16 04:10:03;;;;;;;9.50;6.20;;;2.20;99.90;;;;;;4935019;28;20552;-79
2021/04/16 04:15:00;;;;;;;15.20;7.67;;;2.20;99.90;;;;;;4916348;29;20470;-79
2021/04/16 04:17:32;;;;;;;13.63;3.43;;;2.30;99.90;;;;;;4915748;29;20511;-79
2021/04/16 04:19:59;;;;;;;9.30;2.93;;;2.40;99.90;;;;;;4913507;29;20458;-78
2021/04/16 04:22:27;;;;;;;8.00;3.60;;;2.50;99.90;;;;;;4915928;29;20556;-79
2021/04/16 04:24:58;;;;;;;13.63;4.47;;;2.50;99.90;;;;;;4915867;29;20458;-79
2021/04/16 04:27:24;;;;;;;10.17;4.13;;;2.50;99.90;;;;;;4915997;29;20458;-80
2021/04/16 04:29:51;;;;;;;8.60;3.90;;;2.50;99.90;;;;;;4915883;29;21008;-80
2021/04/16 04:32:17;;;;;;;10.07;4.80;;;2.40;99.90;;;;;;4915953;29;20493;-79
2021/04/16 04:34:45;;;;;;;10.17;4.60;;;2.50;99.90;;;;;;4915712;29;20469;-79
2021/04/16 04:37:12;;;;;;;11.33;5.83;;;2.40;99.90;;;;;;4915809;29;20509;-81
2021/04/16 04:39:42;;;;;;;9.90;5.20;;;2.40;99.90;;;;;;4914515;29;20473;-82
2021/04/16 04:42:13;;;;;;;14.07;7.22;;;2.50;99.90;;;;;;4915658;28;20450;-80
2021/04/16 04:44:39;;;;;;;8.90;5.67;;;2.60;99.90;;;;;;4915907;29;20271;-80
2021/04/16 04:47:08;;;;;;;16.38;7.68;;;2.60;99.90;;;;;;5028973;22;20477;-80
2021/04/16 04:49:35;;;;;;;12.17;6.57;;;2.50;99.90;;;;;;4934207;29;20371;-80
2021/04/16 04:52:12;;;;;;;11.33;6.03;;;2.40;99.90;;;;;;4934540;29;20829;-81
2021/04/16 04:54:39;;;;;;;9.02;5.88;;;2.50;99.90;;;;;;4933241;29;20901;-81
2021/04/16 04:57:05;;;;;;;13.90;5.23;;;2.40;99.90;;;;;;4934595;28;20201;-83
2021/04/16 04:59:32;;;;;;;7.87;4.20;;;2.40;99.90;;;;;;4934381;28;20501;-83
2021/04/16 05:01:58;;;;;;;11.00;6.90;;;2.50;99.90;;;;;;4934175;28;20476;-83
2021/04/16 05:04:25;;;;;;;10.33;5.70;;;2.40;99.90;;;;;;4934317;29;20197;-82
2021/04/16 05:06:51;;;;;;;8.15;4.85;;;2.40;99.90;;;;;;4934435;28;20461;-81
2021/04/16 05:09:18;;;;;;;10.90;4.20;;;2.20;99.90;;;;;;4933033;29;20603;-83
2021/04/16 05:11:45;;;;;;;8.85;3.50;;;2.10;99.90;;;;;;4934197;29;20543;-82
2021/04/16 05:14:11;;;;;;;7.60;2.97;;;2.10;99.90;;;;;;4934224;28;20201;-81
2021/04/16 05:16:42;;;;;;;6.40;2.60;;;2.10;99.90;;;;;;4934275;28;20469;-82
2021/04/16 05:19:10;;;;;;;10.07;4.23;;;2.10;99.90;;;;;;4934150;29;20461;-82
2021/04/16 05:21:38;;;;;;;6.20;2.03;;;2.10;99.90;;;;;;4934110;28;20457;-81
2021/04/16 05:24:05;;;;;;;10.40;4.95;;;2.10;99.90;;;;;;4933122;28;20870;-83
2021/04/16 05:26:33;;;;;;;23.08;5.72;;;1.90;99.90;;;;;;4934140;29;20197;-84
2021/04/16 05:28:59;;;;;;;10.82;5.15;;;1.90;99.90;;;;;;4933525;29;20682;-81
2021/04/16 05:31:25;;;;;;;14.65;9.80;;;1.90;99.90;;;;;;4933181;28;20216;-81
2021/04/16 05:33:52;;;;;;;9.10;5.93;;;1.80;99.90;;;;;;4933954;28;20233;-82
2021/04/16 05:36:18;;;;;;;11.50;9.50;;;1.90;99.90;;;;;;4933830;28;20596;-82
2021/04/16 05:38:45;;;;;;;14.80;11.30;;;1.90;99.90;;;;;;4932598;28;21067;-82
2021/04/16 05:41:11;;;;;;;12.47;11.37;;;1.90;99.90;;;;;;4933658;29;20208;-83
2021/04/16 05:43:39;;;;;;;15.68;14.27;;;1.90;99.90;;;;;;4933501;29;20468;-84
2021/04/16 05:46:05;;;;;;;21.77;20.07;;;2.00;99.90;;;;;;4933747;28;20193;-84
2021/04/16 05:48:32;;;;;;;24.53;22.53;;;2.10;99.90;;;;;;4933547;28;20549;-83
2021/04/16 05:50:59;;;;;;;22.48;19.95;;;2.20;99.90;;;;;;5741040;22;20565;-83
2021/04/16 05:53:25;;;;;;;19.07;17.33;;;2.40;99.90;;;;;;4932515;28;20270;-81
2021/04/16 05:55:51;;;;;;;20.67;19.00;;;2.40;99.90;;;;;;4933589;28;20460;-81
2021/04/16 05:58:20;;;;;;;18.47;16.97;;;2.70;99.90;;;;;;4933385;29;20461;-84
2021/04/16 06:00:47;;;;;;;19.87;18.47;;;2.70;99.90;;;;;;4933776;28;20813;-82
2021/04/16 06:03:16;;;;;;;20.27;18.47;;;2.90;99.90;;;;;;4933426;28;20461;-83
2021/04/16 06:05:42;;;;;;;19.63;18.23;;;3.20;99.90;;;;;;4933490;29;21020;-84
2021/04/16 06:08:09;;;;;;;20.27;18.90;;;3.30;99.90;;;;;;4932095;29;20480;-84
2021/04/16 06:10:37;;;;;;;22.43;20.40;;;3.50;99.90;;;;;;4933428;28;20495;-83
2021/04/16 06:13:04;;;;;;;16.23;13.43;;;3.70;99.90;;;;;;4933252;28;20663;-84
2021/04/16 06:15:30;;;;;;;12.97;11.10;;;3.90;99.90;;;;;;4933248;28;20464;-83
2021/04/16 06:17:58;;;;;;;16.47;10.77;;;4.00;99.90;;;;;;4933284;28;20465;-83
2021/04/16 06:20:27;;;;;;;16.43;9.17;;;4.30;99.90;;;;;;4933425;29;20465;-83
2021/04/16 06:22:55;;;;;;;12.73;7.67;;;4.30;99.90;;;;;;4932298;29;20468;-83
2021/04/16 06:25:24;;;;;;;38.07;7.50;;;4.40;99.90;;;;;;4933162;28;20492;-83
2021/04/16 06:27:50;;;;;;;32.00;6.33;;;4.50;99.90;;;;;;4933265;28;20456;-84
2021/04/16 06:30:19;;;;;;;11.50;6.60;;;4.50;99.90;;;;;;4933043;29;20489;-83
2021/04/16 06:32:46;;;;;;;11.60;4.87;;;4.60;99.90;;;;;;4933215;29;20460;-81
2021/04/16 06:35:16;;;;;;;13.03;6.30;;;4.80;99.90;;;;;;4933537;29;21016;-84
2021/04/16 06:37:43;;;;;;;11.00;4.93;;;4.80;99.90;;;;;;4931782;28;20499;-83
2021/04/16 06:40:13;;;;;;;12.57;5.30;;;4.90;99.90;;;;;;4932759;28;20508;-85
2021/04/16 06:42:41;;;;;;;10.10;5.00;;;5.10;99.90;;;;;;4938855;28;20808;-83
2021/04/16 06:45:15;;;;;;;13.10;5.23;;;5.20;96.90;;;;;;4939449;29;20504;-85
2021/04/16 06:47:48;;;;;;;11.37;3.50;;;5.30;94.20;;;;;;4939343;28;20495;-81
2021/04/16 06:50:16;;;;;;;18.40;4.90;;;5.40;92.10;;;;;;4939142;29;20567;-85
2021/04/16 06:52:50;;;;;;;9.73;2.77;;;5.70;70.90;;;;;;4938454;29;20498;-84
2021/04/16 06:55:26;;;;;;;11.00;4.33;;;5.80;73.20;;;;;;4939308;28;20453;-84
2021/04/16 06:58:00;;;;;;;9.60;3.80;;;5.90;69.80;;;;;;4936875;29;20488;-82
2021/04/16 07:00:37;;;;;;;13.70;3.30;;;5.90;65.50;;;;;;4938010;29;20461;-82
2021/04/16 07:03:10;;;;;;;13.37;5.93;;;5.90;65.40;;;;;;5579458;22;20439;-80
2021/04/16 07:05:42;;;;;;;10.80;5.10;;;6.00;66.60;;;;;;4918137;29;20529;-80
2021/04/16 07:08:21;;;;;;;13.27;4.40;;;6.10;71.20;;;;;;4918317;29;20537;-80
2021/04/16 07:10:52;;;;;;;13.43;4.47;;;6.10;61.70;;;;;;4919080;29;20493;-83
2021/04/16 07:13:31;;;;;;;12.00;5.30;;;6.10;61.50;;;;;;4918227;29;20953;-83
2021/04/16 07:15:57;;;;;;;12.63;4.40;;;6.10;62.70;;;;;;4918816;29;20457;-85
2021/04/16 07:18:33;;;;;;;16.03;5.80;;;6.20;65.50;;;;;;4918807;29;20460;-86
2021/04/16 07:21:01;;;;;;;12.00;5.17;;;6.40;64.60;;;;;;4918523;29;20481;-84
2021/04/16 07:23:29;;;;;;;12.63;5.03;;;6.50;61.30;;;;;;4917794;29;20795;-85
2021/04/16 07:26:09;;;;;;;9.90;3.17;;;6.60;58.30;;;;;;4918877;29;20466;-85
2021/04/16 07:28:49;;;;;;;10.37;5.67;;;6.60;45.90;;;;;;4918940;29;20480;-85
2021/04/16 07:31:49;;;;;;;11.07;3.63;;;6.70;45.50;;;;;;4918719;29;20463;-85
2021/04/16 07:34:41;;;;;;;12.73;4.40;;;6.80;47.50;;;;;;4919313;28;20491;-85
2021/04/16 07:37:12;;;;;;;15.20;3.90;;;7.10;53.00;;;;;;4919664;28;20471;-83
2021/04/16 07:39:45;;;;;;;10.63;4.90;;;7.30;40.50;;;;;;4917446;29;21042;-83
2021/04/16 07:42:39;;;;;;;9.30;3.20;;;7.50;45.40;;;;;;4918421;28;20467;-84
2021/04/16 07:45:19;;;;;;;14.57;4.70;;;7.40;43.00;;;;;;4901580;29;20469;-82
2021/04/16 07:47:48;;;;;;;12.13;3.20;;;7.30;38.60;;;;;;4899398;29;20469;-80
2021/04/16 07:50:28;;;;;;;10.37;3.20;;;7.30;36.00;;;;;;4899208;29;20494;-82
2021/04/16 07:52:56;;;;;;;16.23;3.47;;;7.40;39.00;;;;;;4896511;29;20488;-83
2021/04/16 07:55:27;;;;;;;12.17;4.50;;;7.50;28.40;;;;;;4899411;29;20473;-81
2021/04/16 07:58:05;;;;;;;13.90;4.90;;;7.70;26.20;;;;;;4896354;29;20524;-84
2021/04/16 08:00:36;;;;;;;10.20;2.07;;;8.10;25.70;;;;;;4896361;29;20462;-82
2021/04/16 08:03:14;;;;;;;12.70;3.77;;;8.20;26.50;;;;;;4895930;28;20839;-83
2021/04/16 08:05:43;;;;;;;13.80;4.00;;;8.00;18.40;;;;;;4912961;28;20461;-80
2021/04/16 08:08:15;;;;;;;16.57;5.80;;;8.10;22.40;;;;;;4915384;29;20557;-86
2021/04/16 08:10:43;;;;;;;17.30;5.57;;;8.10;22.20;;;;;;4916163;29;20466;-86
2021/04/16 08:13:13;;;;;;;16.47;4.53;;;8.10;19.30;;;;;;4916136;29;20836;-79
2021/04/16 08:15:41;;;;;;;13.13;2.97;;;8.10;19.70;;;;;;4916430;28;20950;-84
2021/04/16 08:18:23;;;;;;;14.60;4.73;;;8.00;19.90;;;;;;4915971;29;20984;-84
2021/04/16 08:21:04;;;;;;;14.20;4.87;;;8.20;22.50;;;;;;4916140;29;20466;-83
2021/04/16 08:23:42;;;;;;;13.10;4.10;;;8.40;19.50;;;;;;4915017;29;20559;-81
2021/04/16 08:26:14;;;;;;;18.13;4.80;;;8.70;19.70;;;;;;4916048;29;20466;-84
2021/04/16 08:28:52;;;;;;;14.30;2.97;;;8.60;15.70;;;;;;4916898;28;20572;-85
2021/04/16 08:31:27;;;;;;;12.17;2.70;;;8.70;15.50;;;;;;4916301;29;20469;-85
2021/04/16 08:33:59;;;;;;;13.33;3.67;;;8.90;12.60;;;;;;4915868;29;20461;-84
2021/04/16 08:36:31;;;;;;;11.50;2.00;;;9.00;12.60;;;;;;4915797;29;20460;-82
2021/04/16 08:39:14;;;;;;;12.20;2.67;;;9.20;12.80;;;;;;4914431;29;20482;-82
2021/04/16 08:42:03;;;;;;;14.00;3.90;;;9.10;12.00;;;;;;4915583;29;20465;-83
2021/04/16 08:44:44;;;;;;;13.70;3.10;;;9.10;14.10;;;;;;4915742;29;20469;-83
2021/04/16 08:47:26;;;;;;;18.13;3.00;;;9.10;12.50;;;;;;4915366;28;21019;-83
2021/04/16 08:50:27;;;;;;;13.83;2.40;;;9.30;7.40;;;;;;4916353;29;21128;-83
2021/04/16 08:53:00;;;;;;;15.40;4.53;;;9.50;10.60;;;;;;4914268;29;20821;-83
2021/04/16 08:55:48;;;;;;;12.30;2.80;;;9.60;12.20;;;;;;4915565;29;20511;-83
2021/04/16 08:58:30;;;;;;;12.60;2.70;;;9.60;5.50;;;;;;4915566;29;20486;-82
2021/04/16 09:01:13;;;;;;;14.00;1.57;;;9.70;6.60;;;;;;4915179;29;20460;-81
2021/04/16 09:03:44;;;;;;;12.67;2.33;;;9.80;4.90;;;;;;4914878;29;20544;-81
2021/04/16 09:06:44;;;;;;;17.40;3.13;;;9.90;2.30;;;;;;4913961;29;20460;-81
2021/04/16 09:09:47;;;;;;;15.57;2.30;;;9.70;3.70;;;;;;4913862;29;20534;-80
2021/04/16 09:12:56;;;;;;;15.50;2.60;;;9.90;1.60;;;;;;4915272;29;20468;-80
2021/04/16 09:15:51;;;;;;;13.97;3.10;;;10.40;1.00;;;;;;4948359;28;20470;-82
2021/04/16 09:18:43;;;;;;;13.37;1.90;;;11.10;1.00;;;;;;4915306;29;20514;-83
2021/04/16 09:21:33;;;;;;;15.03;2.50;;;11.10;1.00;;;;;;4915011;29;20515;-82
2021/04/16 09:24:30;;;;;;;15.00;2.13;;;11.50;1.00;;;;;;4913730;29;20454;-83
2021/04/16 09:27:01;;;;;;;20.30;3.07;;;11.40;1.00;;;;;;4914211;29;20819;-82
2021/04/16 09:30:19;;;;;;;16.87;1.93;;;12.00;1.00;;;;;;4914831;29;20490;-83
2021/04/16 09:32:56;;;;;;;17.00;2.47;;;11.70;1.00;;;;;;4915120;29;20488;-80
2021/04/16 09:35:53;;;;;;;22.60;3.70;;;12.10;1.00;;;;;;4914616;29;20452;-80
2021/04/16 09:38:53;;;;;;;18.80;1.90;;;12.90;1.00;;;;;;4913823;28;20458;-83
2021/04/16 09:41:36;;;;;;;21.37;2.30;;;12.60;1.00;;;;;;4914618;29;20488;-81
2021/04/16 09:44:49;;;;;;;21.40;3.60;;;12.20;1.00;;;;;;4914993;29;20461;-81
2021/04/16 09:47:43;;;;;;;21.23;3.77;;;11.90;1.00;;;;;;4914704;29;20861;-82
2021/04/16 09:50:32;;;;;;;20.80;2.90;;;11.40;1.00;;;;;;4914492;29;20489;-83
2021/04/16 09:53:21;;;;;;;17.60;2.90;;;11.30;1.00;;;;;;4913608;28;20870;-83
2021/04/16 09:56:13;;;;;;;18.50;3.50;;;11.30;1.00;;;;;;4914744;29;20473;-82
2021/04/16 09:59:07;;;;;;;18.17;3.37;;;11.90;1.00;;;;;;4914376;29;20838;-81
2021/04/16 10:01:57;;;;;;;18.03;2.70;;;12.40;1.00;;;;;;4914563;29;20461;-81
2021/04/16 10:04:59;;;;;;;17.70;1.60;;;12.90;1.00;;;;;;4914010;29;20551;-83
2021/04/16 10:08:09;;;;;;;;;;;;;;;;;;;;;
2021/04/16 10:10:42;;;;;;;18.27;2.00;;;12.90;1.00;;;;;;4913893;29;20493;-82
2021/04/16 10:13:14;;;;;;;19.50;2.10;;;12.90;1.00;;;;;;4914290;28;20468;-82
2021/04/16 10:15:44;;;;;;;20.13;2.10;;;12.50;1.00;;;;;;4914008;29;20531;-81
2021/04/16 10:18:41;;;;;;;22.90;2.80;;;12.90;1.00;;;;;;4914197;29;20453;-82
2021/04/16 10:21:23;;;;;;;23.50;2.63;;;12.40;1.00;;;;;;4914342;29;20462;-81
2021/04/16 10:24:30;;;;;;;23.23;2.80;;;12.60;1.00;;;;;;4912862;28;20945;-83
2021/04/16 12:39:37;;;;;;;24.90;1.80;;;14.40;1.00;;;;;;4914358;29;20932;-81
2021/04/16 12:42:07;;;;;;;19.20;2.00;;;14.00;1.00;;;;;;4915749;29;20458;-81
2021/04/16 12:44:36;;;;;;;17.10;1.30;;;14.00;1.00;;;;;;4915573;29;20500;-80
2021/04/16 12:47:08;;;;;;;16.97;1.40;;;14.70;1.00;;;;;;4915679;28;20458;-80
2021/04/16 12:49:34;;;;;;;23.17;1.90;;;15.80;1.00;;;;;;4915440;29;20489;-81
2021/04/16 12:52:05;;;;;;;18.27;1.40;;;16.10;1.00;;;;;;4915566;29;20782;-80
2021/04/16 12:54:39;;;;;;;21.93;2.30;;;15.30;1.00;;;;;;4914502;29;20466;-81
2021/04/16 12:57:16;;;;;;;22.40;2.07;;;15.00;1.00;;;;;;4915505;29;20488;-80
2021/04/16 12:59:43;;;;;;;19.80;1.27;;;14.20;1.00;;;;;;4915141;29;20488;-81
2021/04/16 13:02:18;;;;;;;19.90;2.00;;;13.80;1.00;;;;;;4915094;29;20953;-81
2021/04/16 13:04:44;;;;;;;20.10;1.60;;;13.90;1.00;;;;;;4915090;29;20516;-81
2021/04/16 13:07:11;;;;;;;19.60;1.50;;;13.70;1.00;;;;;;4915209;28;20466;-82
2021/04/16 13:09:38;;;;;;;19.43;1.60;;;13.20;1.00;;;;;;4914071;29;20520;-81
2021/04/16 13:12:12;;;;;;;17.80;1.93;;;12.80;1.00;;;;;;4915439;28;20462;-84
2021/04/16 13:14:38;;;;;;;17.30;2.00;;;14.40;1.00;;;;;;4897477;29;20528;-81
2021/04/16 13:17:05;;;;;;;17.37;1.60;;;16.10;1.00;;;;;;4915280;29;20458;-81
2021/04/16 13:19:34;;;;;;;22.80;1.77;;;17.00;1.00;;;;;;4914954;29;20485;-81
2021/04/16 13:22:05;;;;;;;19.80;1.60;;;16.50;1.00;;;;;;4914821;29;20462;-81
2021/04/16 13:24:53;;;;;;;20.93;1.97;;;15.00;1.00;;;;;;4913745;29;20929;-85
2021/04/16 13:27:23;;;;;;;20.00;1.73;;;15.50;1.00;;;;;;4914469;29;20468;-82
2021/04/16 13:29:50;;;;;;;20.40;2.13;;;16.00;1.00;;;;;;4914840;29;20462;-83
2021/04/16 13:32:20;;;;;;;20.00;1.93;;;15.90;1.00;;;;;;4914298;29;20470;-83
2021/04/16 13:34:47;;;;;;;20.50;1.67;;;16.70;1.00;;;;;;4914818;29;20457;-83
2021/04/16 13:37:18;;;;;;;20.63;1.47;;;16.70;1.00;;;;;;4914960;29;20468;-82
2021/04/16 13:39:46;;;;;;;21.73;1.60;;;16.20;1.00;;;;;;4913597;29;20493;-82
2021/04/16 13:42:13;;;;;;;20.83;1.20;;;15.90;1.00;;;;;;4914731;29;20983;-82
2021/04/16 13:44:40;;;;;;;21.20;1.50;;;16.00;1.00;;;;;;4914412;29;20457;-82
2021/04/16 13:47:09;;;;;;;23.93;1.93;;;16.20;1.00;;;;;;4914591;29;20481;-82
2021/04/16 13:49:38;;;;;;;21.33;1.80;;;17.10;1.00;;;;;;4914845;28;20498;-83
2021/04/16 13:52:06;;;;;;;23.40;1.50;;;17.70;1.00;;;;;;4913750;29;21027;-83
2021/04/16 13:54:34;;;;;;;24.27;1.60;;;16.90;1.00;;;;;;4913635;29;20465;-82
2021/04/16 13:57:00;;;;;;;25.40;1.53;;;15.90;1.00;;;;;;4914525;29;20465;-83
2021/04/16 13:59:27;;;;;;;26.00;1.50;;;15.40;1.00;;;;;;4914539;29;20919;-83
2021/04/16 14:01:54;;;;;;;24.10;1.57;;;15.70;1.00;;;;;;4914555;29;21045;-83
2021/04/16 14:04:23;;;;;;;25.37;1.60;;;15.70;1.00;;;;;;4914449;29;20567;-82
2021/04/16 14:06:50;;;;;;;23.93;1.80;;;14.80;1.00;;;;;;4914401;29;20604;-82
2021/04/16 14:09:20;;;;;;;22.80;1.50;;;14.30;1.00;;;;;;4913306;29;21075;-82
2021/04/16 14:11:47;;;;;;;25.00;2.20;;;14.10;1.00;;;;;;4914645;28;20540;-83
2021/04/16 14:14:17;;;;;;;21.67;1.50;;;14.50;1.00;;;;;;4914494;29;20462;-83
2021/04/16 14:16:45;;;;;;;22.00;2.33;;;14.90;1.00;;;;;;4914483;29;20493;-83
2021/04/16 14:19:17;;;;;;;22.10;1.63;;;14.80;1.00;;;;;;4914165;29;20481;-82
2021/04/16 14:21:45;;;;;;;21.07;1.50;;;14.30;1.00;;;;;;4914182;29;21004;-83
2021/04/16 14:24:13;;;;;;;21.60;1.50;;;14.40;1.00;;;;;;4913071;29;20469;-82
2021/04/16 14:26:45;;;;;;;20.60;1.40;;;14.30;1.00;;;;;;4914134;29;20544;-81
2021/04/16 14:29:11;;;;;;;20.47;1.47;;;14.50;1.00;;;;;;4914028;29;20457;-83
2021/04/16 14:31:40;;;;;;;22.63;2.03;;;14.60;1.00;;;;;;4914017;29;20462;-82
2021/04/16 14:34:07;;;;;;;20.10;1.43;;;14.40;1.00;;;;;;4914108;29;20493;-82
2021/04/16 14:36:35;;;;;;;20.10;1.33;;;14.40;1.00;;;;;;4913900;29;20504;-81
2021/04/16 14:39:03;;;;;;;21.60;1.90;;;14.00;1.00;;;;;;4912479;29;20891;-82
2021/04/16 14:41:32;;;;;;;19.60;2.20;;;13.90;1.00;;;;;;4913940;29;20470;-81
2021/04/16 14:44:03;;;;;;;19.70;1.93;;;13.80;1.00;;;;;;4913960;28;20488;-82
2021/04/16 14:46:49;;;;;;;21.07;2.20;;;13.80;1.00;;;;;;4913801;29;20956;-83
2021/04/16 14:49:28;;;;;;;19.00;2.10;;;13.90;1.00;;;;;;4913804;28;20465;-82
2021/04/16 14:55:16;;;;;;;;;;;;;;;;;;;;;
2021/04/16 14:57:44;;;;;;;18.70;2.53;;;14.80;1.00;;;;;;4917093;29;20544;-83
2021/04/16 15:00:23;;;;;;;18.33;1.83;;;14.70;1.00;;;;;;4913696;29;20544;-83
2021/04/16 15:03:04;;;;;;;;;;;;;;;;;;;;;
2021/04/16 15:05:33;;;;;;;19.60;1.93;;;14.20;1.00;;;;;;4920391;29;21035;-83
2021/04/16 15:08:13;;;;;;;23.65;2.28;;;14.30;1.00;;;;;;4911406;28;20481;-83
2021/04/16 15:10:43;;;;;;;22.08;2.33;;;14.80;1.00;;;;;;4910881;29;20462;-83
2021/04/16 15:14:14;;;;;;;20.77;1.87;;;15.00;1.00;;;;;;4916893;29;20233;-83
2021/04/16 15:16:44;;;;;;;26.10;2.23;;;14.50;1.00;;;;;;4897511;29;21123;-84
2021/04/16 15:19:17;;;;;;;22.20;1.90;;;14.90;1.00;;;;;;4898174;29;20484;-84
2021/04/16 15:21:49;;;;;;;19.73;2.10;;;14.90;1.00;;;;;;4901096;29;20464;-84
2021/04/16 15:24:36;;;;;;;19.37;1.70;;;15.00;1.00;;;;;;4903595;29;20954;-85
2021/04/16 15:27:23;;;;;;;19.37;1.80;;;14.60;1.00;;;;;;4906850;29;20486;-84
2021/04/16 15:29:55;;;;;;;20.37;1.57;;;14.20;1.00;;;;;;4913529;29;20513;-83
2021/04/16 15:32:32;;;;;;;20.90;2.17;;;13.80;1.00;;;;;;4908476;29;20471;-82
2021/04/16 15:46:20;;;;;;;22.10;2.13;;;15.90;1.00;;;;;;4912079;29;20952;-83
2021/04/16 15:48:50;;;;;;;19.37;1.80;;;15.10;1.00;;;;;;4897778;29;20558;-84
2021/04/16 15:51:18;;;;;;;21.00;1.80;;;14.70;1.00;;;;;;4904377;29;20573;-84